Аэропорт: Кольцово. Екатеринбург

ICAO: USSS

METAR:
2020-08-12 06:30:00
USSS 120630Z 34006MPS 310V020 9999 SCT044 18/09 Q1007 R26R/010060 NOSIG RMK QFE735/0980
METAR:
2020-08-12 04:54:00
TAF USSS 120454Z 1206/1306 34008G15MPS 9999 SCT030CB BECMG 1215/1217 33003G08MPS BECMG 1217/1219 3100 BR BECMG 1303/1305 9999 NSW